Latest Weather Observations for Point Perpendicular

IDN60801

Issued at 11:05 pm EDT Saturday 1 November 2014 (issued every 30 minutes, with the page automatically refreshed every 10 minutes)

About weather observations | Map of weather stations | Latest weather observations for NSW | Other Formats
Station Details ID: 068151 Name: POINT PERPENDICULAR AWS Lat: -35.09 Lon: 150.80 Height: 85.0 m
Data from the previous 72 hours. | See also: Recent months at Point Perpendicular
Date/Time
EDT
Temp
°C
App
Temp
°C
Dew
Point
Rel
Hum
%
Delta-T
°C
Wind Press
QNH
hPa
Press
MSL
hPa
Rain
since 9 am
mm
Dir
 
Spd
km/h
Gust
km/h
Spd
kts
Gust
kts
01/11:00pm 15.2 11.6 12.0 81 1.7 SSE 22 33 12 18 1010.4 1010.2 0.2
01/10:30pm 16.3 13.3 11.9 75 2.4 SSE 19 32 10 17 1010.4 1010.2 0.2
01/10:00pm 16.4 13.4 11.8 74 2.5 SSE 19 30 10 16 1009.8 1009.6 0.2
01/09:30pm 16.7 13.7 12.5 76 2.3 SSE 20 30 11 16 1009.2 1009.0 0.2
01/09:00pm 16.5 13.5 12.7 78 2.1 SSE 20 30 11 16 1008.6 1008.4 0.2
01/08:30pm 16.4 13.1 12.8 79 2.0 SSE 22 33 12 18 1007.8 1007.6 0.2
01/08:00pm 16.7 13.4 14.0 84 1.5 S 24 35 13 19 1006.5 1006.3 0.2
01/07:30pm 17.4 14.8 15.0 86 1.4 S 22 35 12 19 1005.4 1005.2 0.2
01/07:00pm 17.8 15.2 15.8 88 1.2 S 24 33 13 18 1004.2 1004.0 0.2
01/06:30pm 18.2 15.6 16.0 87 1.3 SSE 24 39 13 21 1003.3 1003.1 0.2
01/06:00pm 18.8 18.5 16.4 86 1.4 S 13 24 7 13 1002.8 1002.5 0.2
01/05:30pm 18.7 17.7 16.7 88 1.2 S 17 30 9 16 1001.7 1001.4 0.2
01/05:00pm 18.9 16.9 16.5 86 1.5 S 22 33 12 18 1000.6 1000.3 0.2
01/04:30pm 20.4 17.7 15.6 74 2.9 SSW 24 35 13 19 999.5 999.2 0.2
01/04:27pm 21.0 19.0 15.5 71 3.3 WSW 20 32 11 17 999.6 999.3 0.2
01/04:00pm 26.0 22.2 13.5 46 7.4 W 26 35 14 19 999.6 999.3 0.2
01/03:30pm 25.4 20.6 14.5 51 6.5 W 33 50 18 27 999.4 999.1 0.2
01/03:18pm 25.8 20.0 14.0 48 7.0 WSW 37 52 20 28 998.5 998.3 0.2
01/03:00pm 28.0 23.7 14.3 43 8.3 WNW 30 50 16 27 998.2 998.0 0.2
01/02:39pm 29.7 26.2 15.4 42 8.8 NW 28 48 15 26 998.0 997.8 0.2
01/02:30pm 29.3 27.0 15.8 44 8.4 WNW 22 43 12 23 998.2 998.0 0.2
01/02:09pm 26.3 19.7 16.3 54 6.2 NW 46 65 25 35 998.6 998.4 0.0
01/02:00pm 28.2 24.2 15.1 44 8.0 W 30 52 16 28 998.4 998.2 0.0
01/01:51pm 28.7 25.0 14.9 43 8.4 WNW 28 46 15 25 998.3 998.1 0.0
01/01:30pm 30.2 26.1 13.9 37 9.8 WNW 28 43 15 23 998.2 998.0 0.0
01/01:00pm 29.9 25.6 14.4 38 9.5 WNW 30 48 16 26 998.8 998.5 0.0
01/12:30pm 30.3 25.1 14.4 38 9.7 WNW 35 54 19 29 998.8 998.5 0.0
01/12:02pm 30.6 26.0 13.4 35 10.3 NW 30 48 16 26 999.1 998.8 0.0
01/12:00pm 30.2 25.2 13.5 36 10.1 NW 32 48 17 26 999.2 998.9 0.0
01/11:47am 31.4 27.5 14.5 35 10.3 NW 28 46 15 25 999.5 999.2 0.0
01/11:30am 30.9 26.9 14.1 36 10.2 NW 28 43 15 23 999.6 999.3 0.0
01/11:00am 31.2 30.4 13.9 35 10.5 NNW 11 28 6 15 1000.5 1000.2 0.0
01/10:30am 29.9 29.5 14.0 37 9.6 NW 9 15 5 8 1000.9 1000.7 0.0
01/10:00am 29.8 28.7 14.4 39 9.4 N 13 22 7 12 1000.6 1000.4 0.0
01/09:30am 28.7 27.7 13.4 39 9.1 N 11 17 6 9 1000.7 1000.5 0.0
01/09:00am 27.7 26.3 13.3 41 8.6 NNW 13 22 7 12 1001.1 1000.9 0.0
01/08:30am 26.9 24.4 12.2 40 8.5 NNW 17 28 9 15 1001.2 1001.0 0.0
01/08:00am 26.4 24.7 12.5 42 8.1 N 13 20 7 11 1001.7 1001.5 0.0
01/07:30am 26.2 23.8 11.5 40 8.4 NNW 15 22 8 12 1002.1 1001.9 0.0
01/07:00am 24.7 22.6 11.3 43 7.6 NNW 13 15 7 8 1002.0 1001.8 0.0
01/06:30am 24.2 22.0 10.8 43 7.5 NNW 13 17 7 9 1002.0 1001.8 0.0
01/06:00am 24.4 22.3 11.0 43 7.6 N 13 20 7 11 1001.8 1001.6 0.0
01/05:30am 23.3 20.9 11.4 47 6.7 N 15 22 8 12 1001.8 1001.6 0.0
01/05:00am 24.8 22.3 11.0 42 7.8 N 15 17 8 9 1001.8 1001.6 0.0
01/04:30am 24.2 22.2 11.5 45 7.2 N 13 17 7 9 1001.7 1001.5 0.0
01/04:00am 23.2 21.2 12.8 52 6.0 N 15 22 8 12 1002.1 1001.9 0.0
01/03:30am 23.5 20.8 12.8 51 6.2 N 19 24 10 13 1002.5 1002.3 0.0
01/03:00am 23.9 21.8 12.5 49 6.6 N 15 24 8 13 1002.8 1002.6 0.0
01/02:30am 20.2 19.4 16.2 78 2.4 N 15 22 8 12 1003.1 1002.9 0.0
01/02:00am 19.8 18.6 19.3 97 0.3 N 24 32 13 17 1003.6 1003.4 0.0
01/01:32am 20.1 18.1 19.9 99 0.1 N 30 48 16 26 1003.7 1003.5 0.0
01/01:30am 20.2 17.8 20.0 99 0.1 NNE 32 48 17 26 1003.7 1003.5 0.0
01/01:00am 20.4 17.8 19.9 97 0.3 NNE 33 48 18 26 1003.7 1003.5 0.0
01/12:30am 20.6 18.7 19.4 93 0.8 NNE 28 39 15 21 1004.3 1004.1 0.0
01/12:16am 20.5 18.5 19.2 92 0.8 NNE 28 46 15 25 1004.6 1004.4 0.0
01/12:00am 20.6 18.1 18.9 90 1.1 NNE 30 44 16 24 1004.8 1004.6 0.0
 
Date/Time
EDT
Temp
°C
App
Temp
°C
Dew
Point
Rel
Hum
%
Delta-T
°C
Wind Press
QNH
hPa
Press
MSL
hPa
Rain
since 9 am
mm
Dir
 
Spd
km/h
Gust
km/h
Spd
kts
Gust
kts
31/11:30pm 20.5 18.8 18.1 86 1.5 N 24 39 13 21 1005.2 1005.0 0.0
31/11:00pm 20.4 19.3 17.8 85 1.6 NNE 20 28 11 15 1005.5 1005.3 0.0
31/10:30pm 20.8 18.9 17.6 82 2.0 NNE 24 32 13 17 1006.0 1005.8 0.0
31/10:00pm 21.4 20.0 16.6 74 2.9 NNE 19 28 10 15 1006.4 1006.2 0.0
31/09:30pm 21.3 19.3 17.3 78 2.5 NNE 24 30 13 16 1006.5 1006.3 0.0
31/09:00pm 21.4 19.3 17.2 77 2.6 NNE 24 33 13 18 1006.4 1006.2 0.0
31/08:30pm 21.7 20.1 16.6 73 3.1 NNE 20 30 11 16 1006.3 1006.1 0.0
31/08:00pm 22.0 19.6 16.5 71 3.4 NNE 24 32 13 17 1006.1 1005.9 0.0
31/07:30pm 22.2 18.8 15.8 67 3.9 NNE 28 41 15 22 1006.2 1006.0 0.0
31/07:00pm 22.8 19.9 15.1 62 4.6 NNE 24 43 13 23 1006.2 1006.0 0.0
31/06:30pm 23.2 20.1 14.5 58 5.2 NNE 24 33 13 18 1006.1 1005.9 0.0
31/06:00pm 22.9 20.2 15.7 64 4.4 NNE 24 33 13 18 1006.1 1005.9 0.0
31/05:30pm 24.2 21.3 15.1 56 5.5 NNE 24 33 13 18 1006.1 1005.9 0.0
31/05:00pm 24.6 21.0 15.2 55 5.7 NNE 28 39 15 21 1006.0 1005.8 0.0
31/04:30pm 25.9 22.5 15.9 54 6.1 NNE 28 39 15 21 1006.2 1006.0 0.0
31/04:00pm 24.3 21.9 17.3 65 4.4 NNE 26 35 14 19 1006.3 1006.1 0.0
31/03:30pm 23.6 20.2 17.8 70 3.6 NNE 32 44 17 24 1006.6 1006.5 0.0
31/03:00pm 24.1 20.5 17.1 65 4.4 NNE 32 41 17 22 1006.7 1006.6 0.0
31/02:30pm 24.3 20.9 18.2 68 3.9 NNE 33 44 18 24 1007.4 1007.3 0.0
31/02:00pm 24.5 20.8 17.5 65 4.4 NNE 33 44 18 24 1008.3 1008.2 0.0
31/01:30pm 24.2 21.8 18.2 69 3.8 NNE 28 35 15 19 1009.2 1009.1 0.0
31/01:00pm 22.4 20.7 18.0 76 2.8 NNE 24 33 13 18 1009.6 1009.5 0.0
31/12:30pm 21.1 19.9 17.1 78 2.5 NE 19 28 10 15 1010.0 1009.9 0.0
31/12:00pm 20.5 20.2 16.5 78 2.4 ENE 13 20 7 11 1011.0 1010.9 0.0
31/11:30am 19.9 19.5 16.3 80 2.2 E 13 17 7 9 1011.9 1011.7 0.0
31/11:00am 19.6 19.6 16.3 81 2.0 ESE 11 15 6 8 1012.5 1012.3 0.0
31/10:30am 19.2 19.6 16.4 84 1.7 ESE 9 13 5 7 1013.0 1012.8 0.0
31/10:00am 18.5 19.0 16.5 88 1.2 SE 9 17 5 9 1013.3 1013.1 0.0
31/09:30am 18.0 18.6 15.8 87 1.3 SW 7 13 4 7 1013.4 1013.2 0.0
31/09:00am 18.0 18.8 15.8 87 1.3 SW 6 11 3 6 1013.6 1013.4 0.0
31/08:30am 17.4 18.0 15.7 90 1.0 SSW 7 11 4 6 1013.5 1013.3 0.0
31/08:00am 17.2 18.3 15.7 91 0.9 NW 4 9 2 5 1013.4 1013.2 0.0
31/07:30am 17.4 19.7 16.8 96 0.4 CALM 0 0 0 0 1013.1 1012.9 0.0
31/07:00am 16.8 19.0 16.6 99 0.1 CALM 0 0 0 0 1013.0 1012.8 0.0
31/06:30am 16.5 17.9 16.3 99 0.1 WSW 4 7 2 4 1013.0 1012.8 0.0
31/06:00am 16.5 18.6 16.2 98 0.2 CALM 0 0 0 0 1012.9 1012.7 0.0
31/05:30am 16.8 17.9 16.6 99 0.1 W 6 7 3 4 1012.7 1012.5 0.0
31/05:00am 16.8 17.7 16.6 99 0.1 WSW 7 9 4 5 1012.6 1012.4 0.0
31/04:30am 16.8 17.9 16.6 99 0.1 WSW 6 7 3 4 1012.8 1012.6 0.0
31/04:00am 16.6 17.4 16.4 99 0.1 SW 7 11 4 6 1012.9 1012.7 0.0
31/03:30am 16.7 17.1 16.4 98 0.2 SW 9 13 5 7 1013.1 1012.9 0.0
31/03:00am 16.8 17.2 16.3 97 0.3 WSW 9 11 5 6 1013.3 1013.1 0.0
31/02:30am 17.2 18.2 16.9 98 0.2 SW 7 13 4 7 1013.5 1013.3 0.0
31/02:00am 17.8 18.7 17.6 99 0.1 S 9 13 5 7 1013.5 1013.3 0.0
31/01:30am 18.1 19.4 17.5 96 0.4 SSW 7 9 4 5 1013.8 1013.6 0.0
31/01:00am 18.3 19.4 16.6 90 1.0 SE 6 9 3 5 1014.3 1014.1 0.0
31/12:30am 18.5 19.0 16.5 88 1.2 ESE 9 13 5 7 1014.5 1014.3 0.0
31/12:00am 18.6 19.2 16.8 89 1.1 ESE 9 13 5 7 1014.7 1014.5 0.0
 
Date/Time
EDT
Temp
°C
App
Temp
°C
Dew
Point
Rel
Hum
%
Delta-T
°C
Wind Press
QNH
hPa
Press
MSL
hPa
Rain
since 9 am
mm
Dir
 
Spd
km/h
Gust
km/h
Spd
kts
Gust
kts
30/11:30pm 18.6 19.3 17.1 91 0.9 ESE 9 11 5 6 1014.8 1014.6 0.0
30/11:00pm 18.7 19.5 17.2 91 0.9 ESE 9 13 5 7 1014.7 1014.5 0.0
30/10:30pm 18.8 19.7 17.5 92 0.8 ESE 9 13 5 7 1014.6 1014.4 0.0
30/10:00pm 19.2 20.5 17.5 90 1.0 ESE 7 13 4 7 1014.5 1014.3 0.0
30/09:30pm 18.8 19.8 16.8 88 1.2 E 7 11 4 6 1014.3 1014.1 0.0
30/09:00pm 19.2 19.2 16.2 83 1.8 ENE 11 15 6 8 1013.6 1013.4 0.0
30/08:30pm 19.3 18.8 15.8 80 2.1 ENE 13 15 7 8 1013.1 1012.9 0.0
30/08:00pm 19.3 18.8 15.8 80 2.1 NE 13 17 7 9 1012.9 1012.7 0.0
30/07:30pm 19.8 19.0 15.2 75 2.7 NE 13 15 7 8 1012.4 1012.2 0.0
30/07:00pm 20.2 19.1 14.3 69 3.4 NE 13 20 7 11 1012.0 1011.8 0.0
30/06:30pm 20.9 18.8 12.3 58 4.9 NE 15 20 8 11 1012.0 1011.8 0.0
30/06:00pm 21.4 19.5 11.7 54 5.4 NE 13 22 7 12 1012.0 1011.8 0.0
30/05:30pm 22.1 19.7 11.5 51 5.9 NE 15 24 8 13 1011.7 1011.5 0.0
30/05:00pm 21.7 19.8 13.1 58 4.9 ENE 15 22 8 12 1011.6 1011.4 0.0
30/04:30pm 22.0 20.9 14.4 62 4.5 ENE 13 20 7 11 1011.7 1011.5 0.0
30/04:00pm 22.2 21.1 14.3 61 4.6 E 13 20 7 11 1011.6 1011.4 0.0
30/03:30pm 22.5 21.8 14.4 60 4.8 E 11 20 6 11 1011.7 1011.5 0.0
30/03:00pm 21.2 20.4 15.1 68 3.6 E 13 20 7 11 1012.0 1011.8 0.0
30/02:30pm 20.7 20.2 15.9 74 2.9 E 13 20 7 11 1012.3 1012.1 0.0
30/02:00pm 20.4 19.2 16.0 76 2.6 ESE 17 22 9 12 1012.6 1012.4 0.0
30/01:30pm 19.8 18.8 15.7 77 2.4 ESE 15 24 8 13 1013.0 1012.8 0.0
30/01:00pm 19.7 18.8 15.8 78 2.3 SE 15 20 8 11 1013.4 1013.2 0.0
30/12:30pm 19.7 20.0 16.0 79 2.2 SSE 9 17 5 9 1013.6 1013.4 0.0
30/12:00pm 19.8 19.4 16.1 79 2.2 SSE 13 17 7 9 1013.9 1013.7 0.0
30/11:30am 19.3 19.1 15.8 80 2.1 SSE 11 15 6 8 1014.1 1013.9 0.0
30/11:00am 19.0 19.3 15.1 78 2.3 SW 7 13 4 7 1014.2 1014.0 0.0
30/10:30am 18.7 18.4 14.4 76 2.5 WSW 9 13 5 7 1014.5 1014.3 0.0
30/10:00am 19.1 17.8 12.4 65 3.8 WNW 11 20 6 11 1014.5 1014.3 0.0
30/09:30am 18.5 17.3 12.9 70 3.2 W 11 15 6 8 1014.5 1014.3 0.0
30/09:00am 17.8 16.7 13.1 74 2.6 WNW 11 17 6 9 1014.7 1014.5 0.0
30/08:30am 17.2 16.4 13.9 81 1.9 NW 11 15 6 8 1014.6 1014.4 0.0
30/08:00am 16.9 16.1 14.0 83 1.7 NNW 11 17 6 9 1014.5 1014.3 0.0
30/07:30am 15.8 15.1 14.2 90 0.9 N 11 15 6 8 1014.5 1014.3 0.0
30/07:00am 15.0 14.6 14.2 95 0.5 N 9 11 5 6 1014.2 1014.0 0.0
30/06:30am 15.1 15.2 14.5 96 0.3 NNW 7 9 4 5 1014.3 1014.1 0.0
30/06:00am 15.0 15.0 14.2 95 0.5 NNW 7 9 4 5 1014.0 1013.8 0.0
30/05:30am 15.0 15.1 14.4 96 0.3 NW 7 7 4 4 1013.9 1013.7 0.0
30/05:00am 15.3 15.0 14.5 95 0.5 NNW 9 9 5 5 1014.0 1013.8 0.0
30/04:30am 15.3 14.8 13.8 91 0.8 N 9 11 5 6 1014.0 1013.8 0.0
30/04:00am 15.6 14.8 14.0 90 0.9 N 11 13 6 7 1013.9 1013.7 0.0
30/03:30am 16.1 15.1 14.5 90 0.9 N 13 17 7 9 1014.1 1013.9 0.0
30/03:00am 16.5 14.9 14.9 90 0.9 N 17 22 9 12 1014.4 1014.2 0.0
30/02:30am 16.9 15.4 15.2 90 1.0 N 17 24 9 13 1014.7 1014.5 0.0
30/02:00am 16.9 15.6 14.9 88 1.2 N 15 22 8 12 1015.0 1014.8 0.0
30/01:30am 17.2 15.3 15.2 88 1.2 N 19 32 10 17 1015.3 1015.1 0.0
30/01:00am 17.4 14.8 15.0 86 1.4 N 22 33 12 18 1015.6 1015.4 0.0
30/12:30am 17.5 14.6 15.0 85 1.5 N 24 33 13 18 1015.9 1015.7 0.0
30/12:00am 17.7 14.8 15.0 84 1.6 N 24 33 13 18 1016.2 1016.0 0.0
 
Date/Time
EDT
Temp
°C
App
Temp
°C
Dew
Point
Rel
Hum
%
Delta-T
°C
Wind Press
QNH
hPa
Press
MSL
hPa
Rain
since 9 am
mm
Dir
 
Spd
km/h
Gust
km/h
Spd
kts
Gust
kts
29/11:30pm 18.0 15.5 15.1 83 1.7 NNE 22 30 12 16 1016.3 1016.1 0.0

Other Formats:

Comma delimited format used in spreadsheet applications
http://www.bom.gov.au/fwo/IDN60801/IDN60801.95940.axf

JavaScript Object Notation format (JSON) in row-major order
http://www.bom.gov.au/fwo/IDN60801/IDN60801.95940.json